createdAt,value
2023-05-21T00:01:42.578Z,62.30
2023-05-21T00:04:09.746Z,62.40
2023-05-21T00:06:36.730Z,62.70
2023-05-21T00:09:05.208Z,62.80
2023-05-21T00:11:32.727Z,62.30
2023-05-21T00:13:59.558Z,62.40
2023-05-21T00:16:26.858Z,62.40
2023-05-21T00:18:54.656Z,62.80
2023-05-21T00:21:26.052Z,62.60
2023-05-21T00:23:56.986Z,62.70
2023-05-21T00:26:26.872Z,63.10
2023-05-21T00:28:53.711Z,63.90
2023-05-21T00:31:20.675Z,63.80
2023-05-21T00:33:47.518Z,64.50
2023-05-21T00:36:16.594Z,64.40
2023-05-21T00:38:44.266Z,65.00
2023-05-21T00:41:11.496Z,64.90
2023-05-21T00:43:42.059Z,64.80
2023-05-21T00:46:12.284Z,65.20
2023-05-21T00:48:39.743Z,65.10
2023-05-21T00:51:07.059Z,65.40
2023-05-21T00:53:35.712Z,65.80
2023-05-21T00:56:03.228Z,66.50
2023-05-21T00:58:31.077Z,66.80
2023-05-21T01:00:58.196Z,67.20
2023-05-21T01:03:26.239Z,68.00
2023-05-21T01:05:53.452Z,67.80
2023-05-21T01:08:21.843Z,68.60
2023-05-21T01:10:49.863Z,68.80
2023-05-21T01:13:17.846Z,69.20
2023-05-21T01:15:46.015Z,68.60
2023-05-21T01:18:14.431Z,68.90
2023-05-21T01:20:42.659Z,69.40
2023-05-21T01:23:09.620Z,68.70
2023-05-21T01:25:36.732Z,68.50
2023-05-21T01:28:03.775Z,68.10
2023-05-21T01:30:30.882Z,68.70
2023-05-21T01:33:29.616Z,69.40
2023-05-21T01:36:32.882Z,68.70
2023-05-21T01:39:07.066Z,68.80
2023-05-21T01:41:38.358Z,69.60
2023-05-21T01:44:07.796Z,69.40
2023-05-21T01:46:36.810Z,69.40
2023-05-21T01:49:08.146Z,69.90
2023-05-21T01:51:36.159Z,70.00
2023-05-21T01:54:03.375Z,70.00
2023-05-21T01:56:30.163Z,69.20
2023-05-21T01:58:58.587Z,68.40
2023-05-21T02:01:26.341Z,67.70
2023-05-21T02:03:53.260Z,67.50
2023-05-21T02:06:20.169Z,66.30
2023-05-21T02:08:48.437Z,65.70
2023-05-21T02:11:15.289Z,65.80
2023-05-21T02:13:42.678Z,65.40
2023-05-21T02:16:14.911Z,64.60
2023-05-21T02:18:43.697Z,64.50
2023-05-21T02:21:13.847Z,64.20
2023-05-21T02:23:41.796Z,64.20
2023-05-21T02:26:08.901Z,64.10
2023-05-21T02:28:36.543Z,63.70
2023-05-21T02:31:04.018Z,63.60
2023-05-21T02:33:30.848Z,63.30
2023-05-21T02:35:57.726Z,63.30
2023-05-21T02:38:25.943Z,62.60
2023-05-21T02:40:53.156Z,63.10
2023-05-21T02:43:20.241Z,62.90
2023-05-21T02:45:47.730Z,62.60
2023-05-21T02:48:14.770Z,63.00
2023-05-21T02:50:41.708Z,62.40
2023-05-21T02:53:08.507Z,62.30
2023-05-21T02:55:35.778Z,62.00
2023-05-21T02:58:02.858Z,62.10
2023-05-21T03:00:29.741Z,61.80
2023-05-21T03:02:56.763Z,61.70
2023-05-21T03:05:24.490Z,61.60
2023-05-21T03:07:51.415Z,61.60
2023-05-21T03:10:18.249Z,61.80
2023-05-21T03:12:45.011Z,61.70
2023-05-21T03:15:14.931Z,62.10
2023-05-21T03:17:44.921Z,61.70
2023-05-21T03:20:16.558Z,62.30
2023-05-21T03:22:44.882Z,62.00
2023-05-21T03:25:12.809Z,62.30
2023-05-21T03:27:39.999Z,62.30
2023-05-21T03:30:07.415Z,62.40
2023-05-21T03:32:37.781Z,62.40
2023-05-21T03:35:05.392Z,62.40
2023-05-21T03:37:32.284Z,62.10
2023-05-21T03:39:59.127Z,62.50
2023-05-21T03:42:25.903Z,62.50
2023-05-21T03:44:52.764Z,62.50
2023-05-21T03:47:19.611Z,62.50
2023-05-21T03:49:46.408Z,62.40
2023-05-21T03:52:13.202Z,62.40
2023-05-21T03:54:40.056Z,62.10
2023-05-21T03:57:06.832Z,62.00
2023-05-21T03:59:33.655Z,61.80
2023-05-21T04:02:00.699Z,62.00
2023-05-21T04:04:29.393Z,61.80
2023-05-21T04:06:56.311Z,61.80
2023-05-21T04:09:23.175Z,62.00
2023-05-21T04:11:50.048Z,62.00
2023-05-21T04:14:17.383Z,61.30
2023-05-21T04:16:44.359Z,61.50
2023-05-21T04:19:11.395Z,61.50
2023-05-21T04:21:38.280Z,61.10
2023-05-21T04:24:05.155Z,61.00
2023-05-21T04:26:34.141Z,61.20
2023-05-21T04:29:03.764Z,60.90
2023-05-21T04:31:33.735Z,61.10
2023-05-21T04:34:01.079Z,60.90
2023-05-21T04:36:29.043Z,60.90
2023-05-21T04:38:56.108Z,60.80
2023-05-21T04:41:23.214Z,61.10
2023-05-21T04:43:55.023Z,61.00
2023-05-21T04:46:25.481Z,60.70
2023-05-21T04:48:55.562Z,60.80
2023-05-21T04:51:24.919Z,60.80
2023-05-21T04:53:52.080Z,60.50
2023-05-21T04:56:18.908Z,60.30
2023-05-21T04:58:47.951Z,60.20
2023-05-21T05:01:15.648Z,60.60
2023-05-21T05:03:42.595Z,60.40
2023-05-21T05:06:09.586Z,60.30
2023-05-21T05:08:36.394Z,60.00
2023-05-21T05:11:03.298Z,60.00
2023-05-21T05:13:30.329Z,59.90
2023-05-21T05:15:57.586Z,60.10
2023-05-21T05:18:24.445Z,59.40
2023-05-21T05:20:51.366Z,60.00
2023-05-21T05:23:18.302Z,59.40
2023-05-21T05:25:45.073Z,59.70
2023-05-21T05:28:11.810Z,59.30
2023-05-21T05:30:38.723Z,59.30
2023-05-21T05:33:05.612Z,59.80
2023-05-21T05:35:32.895Z,59.40
2023-05-21T05:38:00.577Z,59.30
2023-05-21T05:40:27.563Z,59.90
2023-05-21T05:42:54.428Z,59.70
2023-05-21T05:45:21.424Z,59.50
2023-05-21T05:47:48.375Z,59.40
2023-05-21T05:50:15.476Z,59.50
2023-05-21T05:52:42.439Z,58.80
2023-05-21T05:55:12.207Z,58.90
2023-05-21T05:57:39.064Z,58.60
2023-05-21T06:00:06.480Z,58.30
2023-05-21T06:02:33.484Z,58.20
2023-05-21T06:05:00.415Z,56.00
2023-05-21T06:07:27.289Z,56.10
2023-05-21T06:09:54.105Z,55.90
2023-05-21T06:12:21.320Z,56.00
2023-05-21T06:14:49.120Z,55.90
2023-05-21T06:17:16.301Z,55.60
2023-05-21T06:19:45.295Z,55.00
2023-05-21T06:22:12.226Z,55.50
2023-05-21T06:24:39.044Z,55.60
2023-05-21T06:27:06.110Z,55.70
2023-05-21T06:29:33.025Z,56.00
2023-05-21T06:31:59.896Z,55.80
2023-05-21T06:34:26.664Z,55.40
2023-05-21T06:36:53.506Z,56.50
2023-05-21T06:39:20.426Z,55.70
2023-05-21T06:41:47.216Z,55.70
2023-05-21T06:44:15.742Z,55.00
2023-05-21T06:46:43.143Z,55.10
2023-05-21T06:49:14.053Z,55.30
2023-05-21T06:51:41.199Z,54.70
2023-05-21T06:54:08.022Z,54.20
2023-05-21T06:56:34.923Z,53.50
2023-05-21T06:59:01.739Z,53.80
2023-05-21T07:01:28.718Z,53.10
2023-05-21T07:03:55.800Z,53.10
2023-05-21T07:06:22.670Z,53.50
2023-05-21T07:08:49.968Z,53.60
2023-05-21T07:11:16.841Z,53.30
2023-05-21T07:13:43.644Z,53.00
2023-05-21T07:16:10.661Z,53.20
2023-05-21T07:18:37.784Z,53.20
2023-05-21T07:21:04.729Z,53.10
2023-05-21T07:23:31.729Z,53.20
2023-05-21T07:25:58.594Z,53.20
2023-05-21T07:28:25.449Z,53.10
2023-05-21T07:30:52.340Z,53.30
2023-05-21T07:33:20.835Z,53.70
2023-05-21T07:35:47.650Z,52.70
2023-05-21T07:38:14.562Z,52.40
2023-05-21T07:40:41.384Z,51.20
2023-05-21T07:43:08.292Z,50.60
2023-05-21T07:45:35.370Z,50.10
2023-05-21T07:48:02.816Z,49.70
2023-05-21T07:50:29.761Z,50.00
2023-05-21T07:52:56.681Z,49.20
2023-05-21T07:55:26.321Z,49.40
2023-05-21T07:57:53.163Z,48.70
2023-05-21T08:00:23.294Z,46.90
2023-05-21T08:02:50.422Z,47.50
2023-05-21T08:05:17.443Z,47.60
2023-05-21T08:07:44.544Z,47.80
2023-05-21T08:10:11.406Z,48.10
2023-05-21T08:12:38.258Z,48.00
2023-05-21T08:15:05.596Z,47.60
2023-05-21T08:17:32.491Z,47.30
2023-05-21T08:19:59.378Z,47.20
2023-05-21T08:22:26.244Z,47.80
2023-05-21T08:24:53.083Z,47.70
2023-05-21T08:27:20.026Z,46.60
2023-05-21T08:29:47.070Z,46.40
2023-05-21T08:32:14.187Z,46.80
2023-05-21T08:34:41.079Z,46.20
2023-05-21T08:37:08.065Z,45.90
2023-05-21T08:39:34.941Z,46.10
2023-05-21T08:42:39.553Z,46.40
2023-05-21T08:45:07.409Z,43.80
2023-05-21T08:47:37.503Z,43.50
2023-05-21T08:50:05.687Z,42.70
2023-05-21T08:52:32.748Z,41.60
2023-05-21T08:55:00.557Z,42.30
2023-05-21T08:57:28.766Z,43.30
2023-05-21T08:59:55.618Z,43.70
2023-05-21T09:02:24.955Z,43.80
2023-05-21T09:04:57.373Z,44.30
2023-05-21T09:07:31.016Z,44.20
2023-05-21T09:10:01.893Z,44.50
2023-05-21T09:12:29.064Z,45.10
2023-05-21T09:14:58.425Z,44.00
2023-05-21T09:17:25.357Z,44.10
2023-05-21T09:20:15.257Z,43.70
2023-05-21T09:22:46.094Z,44.30
2023-05-21T09:25:17.823Z,44.80
2023-05-21T09:27:44.740Z,43.10
2023-05-21T09:30:17.403Z,43.10
2023-05-21T09:32:45.276Z,42.30
2023-05-21T09:35:14.165Z,42.10
2023-05-21T09:37:47.277Z,41.90
2023-05-21T09:40:16.246Z,42.00
2023-05-21T09:42:48.561Z,41.50
2023-05-21T09:45:20.112Z,41.20
2023-05-21T09:47:48.246Z,40.90
2023-05-21T09:50:27.803Z,41.20
2023-05-21T09:52:55.678Z,41.40
2023-05-21T09:55:24.431Z,41.10
2023-05-21T09:57:51.738Z,39.60
2023-05-21T10:00:22.808Z,39.40
2023-05-21T10:02:53.918Z,39.90
2023-05-21T10:05:21.651Z,40.90
2023-05-21T10:07:54.413Z,39.10
2023-05-21T10:10:22.802Z,39.10
2023-05-21T10:13:14.252Z,39.10
2023-05-21T10:15:55.729Z,39.40
2023-05-21T10:18:23.588Z,38.70
2023-05-21T10:20:51.466Z,39.30
2023-05-21T10:23:20.283Z,38.10
2023-05-21T10:25:48.989Z,38.40
2023-05-21T10:28:18.191Z,38.70
2023-05-21T10:30:46.433Z,38.40
2023-05-21T10:33:16.684Z,38.60
2023-05-21T10:35:47.146Z,38.30
2023-05-21T10:38:14.446Z,38.60
2023-05-21T10:40:41.384Z,37.80
2023-05-21T10:43:22.136Z,38.30
2023-05-21T10:46:14.361Z,38.50
2023-05-21T10:49:18.104Z,39.10
2023-05-21T10:52:07.522Z,39.80
2023-05-21T10:55:07.964Z,39.50
2023-05-21T10:57:55.714Z,39.50
2023-05-21T11:00:25.850Z,40.00
2023-05-21T11:02:53.168Z,39.50
2023-05-21T11:05:57.584Z,38.80
2023-05-21T11:08:29.094Z,38.20
2023-05-21T11:11:00.320Z,38.60
2023-05-21T11:13:28.678Z,38.80
2023-05-21T11:16:06.722Z,38.80
2023-05-21T11:18:37.760Z,38.90
2023-05-21T11:21:10.804Z,38.70
2023-05-21T11:24:04.836Z,39.90
2023-05-21T11:26:55.258Z,38.80
2023-05-21T11:29:33.662Z,39.30
2023-05-21T11:32:05.457Z,39.10
2023-05-21T11:34:46.242Z,38.20
2023-05-21T11:37:25.069Z,38.30
2023-05-21T11:39:52.248Z,36.90
2023-05-21T11:42:38.875Z,36.90
2023-05-21T11:45:06.372Z,37.50
2023-05-21T11:47:33.365Z,36.80
2023-05-21T11:50:02.460Z,37.40
2023-05-21T11:52:31.206Z,37.20
2023-05-21T11:54:59.891Z,36.60
2023-05-21T11:57:33.140Z,36.40
2023-05-21T12:00:01.877Z,37.00
2023-05-21T12:02:32.146Z,36.80
2023-05-21T12:05:00.689Z,37.40
2023-05-21T12:07:29.992Z,37.20
2023-05-21T12:09:57.489Z,37.10
2023-05-21T12:12:35.298Z,37.80
2023-05-21T12:15:10.391Z,36.60
2023-05-21T12:17:37.397Z,37.40
2023-05-21T12:20:07.547Z,37.30
2023-05-21T12:22:34.445Z,37.20
2023-05-21T12:25:01.621Z,36.60
2023-05-21T12:27:31.940Z,36.90
2023-05-21T12:29:59.766Z,37.10
2023-05-21T12:32:28.281Z,37.50
2023-05-21T12:34:57.629Z,38.20
2023-05-21T12:37:26.201Z,38.40
2023-05-21T12:39:54.611Z,38.70
2023-05-21T12:42:35.038Z,37.20
2023-05-21T12:45:09.298Z,38.10
2023-05-21T12:47:36.891Z,38.20
2023-05-21T12:50:08.346Z,38.20
2023-05-21T12:52:35.364Z,38.00
2023-05-21T12:55:02.324Z,38.40
2023-05-21T12:57:37.294Z,38.30
2023-05-21T13:00:11.204Z,38.90
2023-05-21T13:02:42.544Z,37.00
2023-05-21T13:05:15.575Z,36.60
2023-05-21T13:07:44.176Z,37.30
2023-05-21T13:10:12.287Z,36.90
2023-05-21T13:12:41.136Z,36.50
2023-05-21T13:15:09.969Z,37.10
2023-05-21T13:17:39.885Z,38.50
2023-05-21T13:20:18.457Z,38.40
2023-05-21T13:22:47.404Z,38.10
2023-05-21T13:25:16.820Z,37.90
2023-05-21T13:27:44.198Z,37.30
2023-05-21T13:30:11.813Z,37.70
2023-05-21T13:32:40.522Z,37.50
2023-05-21T13:35:08.322Z,37.10
2023-05-21T13:37:38.314Z,37.90
2023-05-21T13:40:07.300Z,37.50
2023-05-21T13:42:35.593Z,38.30
2023-05-21T13:45:02.644Z,38.40
2023-05-21T13:47:29.692Z,38.30
2023-05-21T13:49:56.718Z,38.80
2023-05-21T13:52:23.781Z,38.80
2023-05-21T13:54:51.065Z,39.30
2023-05-21T13:57:18.091Z,40.00
2023-05-21T13:59:45.030Z,39.80
2023-05-21T14:02:12.598Z,39.20
2023-05-21T14:04:39.782Z,39.20
2023-05-21T14:07:07.249Z,38.80
2023-05-21T14:09:34.652Z,39.50
2023-05-21T14:12:01.722Z,39.70
2023-05-21T14:14:28.590Z,40.30
2023-05-21T14:16:56.692Z,39.90
2023-05-21T14:19:23.849Z,40.10
2023-05-21T14:21:53.999Z,40.90
2023-05-21T14:24:21.115Z,39.20
2023-05-21T14:26:48.085Z,38.70
2023-05-21T14:29:15.573Z,38.60
2023-05-21T14:31:42.585Z,39.20
2023-05-21T14:34:09.623Z,38.50
2023-05-21T14:36:36.598Z,38.20
2023-05-21T14:39:04.384Z,37.70
2023-05-21T14:41:31.503Z,38.00
2023-05-21T14:43:58.555Z,37.80
2023-05-21T14:46:25.874Z,37.70
2023-05-21T14:48:52.982Z,38.50
2023-05-21T14:51:20.414Z,38.50
2023-05-21T14:53:47.265Z,37.80
2023-05-21T14:56:14.103Z,37.40
2023-05-21T14:58:40.944Z,38.40
2023-05-21T15:01:07.999Z,37.90
2023-05-21T15:03:35.088Z,38.00
2023-05-21T15:06:02.248Z,38.50
2023-05-21T15:08:29.097Z,38.20
2023-05-21T15:10:57.019Z,37.60
2023-05-21T15:13:24.176Z,37.70
2023-05-21T15:15:54.975Z,38.20
2023-05-21T15:18:26.081Z,37.80
2023-05-21T15:20:57.518Z,37.40
2023-05-21T15:23:24.460Z,38.00
2023-05-21T15:25:51.548Z,38.00
2023-05-21T15:28:18.696Z,37.80
2023-05-21T15:30:45.728Z,38.20
2023-05-21T15:33:12.868Z,38.10
2023-05-21T15:35:40.090Z,38.30
2023-05-21T15:38:07.117Z,38.40
2023-05-21T15:40:34.215Z,38.90
2023-05-21T15:43:01.106Z,40.20
2023-05-21T15:45:27.984Z,38.40
2023-05-21T15:47:57.422Z,37.90
2023-05-21T15:50:27.173Z,37.80
2023-05-21T15:52:56.377Z,38.20
2023-05-21T15:55:23.799Z,38.40
2023-05-21T15:57:50.841Z,38.80
2023-05-21T16:00:18.277Z,39.30
2023-05-21T16:02:45.788Z,39.00
2023-05-21T16:05:13.044Z,38.70
2023-05-21T16:07:40.068Z,39.40
2023-05-21T16:10:10.746Z,39.60
2023-05-21T16:12:38.949Z,40.00
2023-05-21T16:15:06.756Z,39.80
2023-05-21T16:17:33.735Z,40.10
2023-05-21T16:20:01.096Z,40.10
2023-05-21T16:22:28.223Z,40.60
2023-05-21T16:24:55.850Z,40.60
2023-05-21T16:27:22.751Z,40.80
2023-05-21T16:29:49.610Z,40.10
2023-05-21T16:32:16.710Z,40.20
2023-05-21T16:34:43.690Z,40.70
2023-05-21T16:37:11.356Z,40.80
2023-05-21T16:39:38.330Z,41.50
2023-05-21T16:42:05.507Z,40.90
2023-05-21T16:44:32.535Z,40.90
2023-05-21T16:47:00.349Z,40.50
2023-05-21T16:49:28.007Z,41.50
2023-05-21T16:51:54.923Z,41.60
2023-05-21T16:54:22.195Z,41.80
2023-05-21T16:56:49.260Z,41.70
2023-05-21T16:59:16.467Z,41.60
2023-05-21T17:01:43.456Z,41.30
2023-05-21T17:04:11.386Z,41.20
2023-05-21T17:06:38.599Z,41.30
2023-05-21T17:09:05.762Z,41.70
2023-05-21T17:11:35.009Z,42.00
2023-05-21T17:14:02.018Z,42.00
2023-05-21T17:16:28.994Z,42.50
2023-05-21T17:18:56.684Z,42.00
2023-05-21T17:21:24.643Z,42.50
2023-05-21T17:23:51.450Z,42.10
2023-05-21T17:26:18.300Z,42.00
2023-05-21T17:28:45.303Z,42.50
2023-05-21T17:31:12.284Z,41.30
2023-05-21T17:33:39.406Z,41.20
2023-05-21T17:36:06.823Z,41.60
2023-05-21T17:38:34.345Z,41.40
2023-05-21T17:41:01.503Z,41.10
2023-05-21T17:43:28.387Z,40.90
2023-05-21T17:45:55.147Z,40.60
2023-05-21T17:48:22.120Z,40.80
2023-05-21T17:50:49.123Z,40.90
2023-05-21T17:53:16.622Z,41.00
2023-05-21T17:55:43.584Z,40.80
2023-05-21T17:58:10.466Z,41.30
2023-05-21T18:00:37.464Z,41.60
2023-05-21T18:03:04.696Z,42.00
2023-05-21T18:05:31.678Z,42.00
2023-05-21T18:08:01.398Z,42.20
2023-05-21T18:10:28.837Z,42.10
2023-05-21T18:12:55.848Z,42.10
2023-05-21T18:15:22.908Z,41.90
2023-05-21T18:17:49.955Z,42.00
2023-05-21T18:20:16.919Z,42.00
2023-05-21T18:22:44.701Z,42.10
2023-05-21T18:25:11.834Z,42.20
2023-05-21T18:27:38.782Z,42.60
2023-05-21T18:30:06.977Z,42.70
2023-05-21T18:32:34.489Z,42.60
2023-05-21T18:35:01.505Z,42.90
2023-05-21T18:37:29.254Z,42.90
2023-05-21T18:39:56.104Z,43.30
2023-05-21T18:42:23.016Z,43.20
2023-05-21T18:44:52.603Z,43.40
2023-05-21T18:47:19.583Z,43.90
2023-05-21T18:49:46.440Z,43.80
2023-05-21T18:52:13.840Z,43.50
2023-05-21T18:54:40.880Z,43.30
2023-05-21T18:57:07.875Z,44.50
2023-05-21T18:59:34.821Z,44.60
2023-05-21T19:02:03.402Z,44.90
2023-05-21T19:04:30.978Z,44.60
2023-05-21T19:06:57.980Z,45.00
2023-05-21T19:09:24.857Z,44.50
2023-05-21T19:11:51.954Z,44.50
2023-05-21T19:14:20.398Z,44.60
2023-05-21T19:16:47.512Z,44.70
2023-05-21T19:19:14.438Z,44.70
2023-05-21T19:21:41.383Z,44.70
2023-05-21T19:24:08.376Z,45.10
2023-05-21T19:26:36.251Z,45.00
2023-05-21T19:29:03.106Z,45.30
2023-05-21T19:31:30.033Z,45.00
2023-05-21T19:33:58.153Z,45.20
2023-05-21T19:36:25.193Z,45.40
2023-05-21T19:38:52.041Z,45.60
2023-05-21T19:41:19.973Z,45.60
2023-05-21T19:43:46.815Z,45.70
2023-05-21T19:46:17.197Z,46.30
2023-05-21T19:48:46.032Z,46.10
2023-05-21T19:51:13.510Z,46.30
2023-05-21T19:53:40.406Z,46.50
2023-05-21T19:56:07.566Z,47.00
2023-05-21T19:58:34.383Z,47.20
2023-05-21T20:01:01.302Z,47.20
2023-05-21T20:03:32.230Z,47.70
2023-05-21T20:05:59.203Z,47.50
2023-05-21T20:08:26.093Z,47.80
2023-05-21T20:10:53.525Z,47.90
2023-05-21T20:13:22.125Z,48.10
2023-05-21T20:15:50.414Z,48.30
2023-05-21T20:18:17.451Z,48.20
2023-05-21T20:20:44.278Z,49.40
2023-05-21T20:23:12.786Z,48.90
2023-05-21T20:25:39.751Z,49.20
2023-05-21T20:28:08.208Z,49.80
2023-05-21T20:30:51.463Z,49.90
2023-05-21T20:33:19.071Z,50.60
2023-05-21T20:35:46.116Z,50.40
2023-05-21T20:38:13.254Z,50.40
2023-05-21T20:40:40.176Z,50.40
2023-05-21T20:43:07.170Z,50.80
2023-05-21T20:45:35.797Z,50.30
2023-05-21T20:48:03.576Z,50.60
2023-05-21T20:50:30.517Z,51.00
2023-05-21T20:52:58.761Z,51.00
2023-05-21T20:55:25.675Z,51.30
2023-05-21T20:57:52.754Z,51.10
2023-05-21T21:00:19.953Z,51.30
2023-05-21T21:02:47.075Z,51.60
2023-05-21T21:05:13.953Z,51.50
2023-05-21T21:07:41.872Z,52.10
2023-05-21T21:10:09.259Z,52.20
2023-05-21T21:12:36.112Z,52.70
2023-05-21T21:15:03.192Z,52.40
2023-05-21T21:17:30.058Z,52.90
2023-05-21T21:19:56.899Z,52.50
2023-05-21T21:22:23.648Z,53.20
2023-05-21T21:24:50.454Z,54.10
2023-05-21T21:27:17.188Z,54.10
2023-05-21T21:29:44.868Z,53.80
2023-05-21T21:32:12.246Z,54.20
2023-05-21T21:34:38.987Z,53.90
2023-05-21T21:37:06.135Z,54.30
2023-05-21T21:39:32.939Z,54.20
2023-05-21T21:41:59.955Z,54.00
2023-05-21T21:44:26.831Z,54.40
2023-05-21T21:46:53.862Z,54.50
2023-05-21T21:49:20.765Z,54.50
2023-05-21T21:51:48.432Z,54.70
2023-05-21T21:54:15.638Z,54.50
2023-05-21T21:56:42.649Z,54.90
2023-05-21T21:59:09.565Z,55.60
2023-05-21T22:01:36.833Z,55.60
2023-05-21T22:04:03.986Z,55.80
2023-05-21T22:06:31.377Z,55.80
2023-05-21T22:08:58.326Z,56.00
2023-05-21T22:11:27.041Z,55.90
2023-05-21T22:13:53.855Z,56.10
2023-05-21T22:16:20.886Z,56.60
2023-05-21T22:18:50.093Z,56.30
2023-05-21T22:21:18.548Z,56.10
2023-05-21T22:23:45.527Z,56.70
2023-05-21T22:26:12.473Z,56.80
2023-05-21T22:28:39.258Z,57.20
2023-05-21T22:31:07.744Z,58.40
2023-05-21T22:33:34.584Z,58.30
2023-05-21T22:36:01.719Z,58.20
2023-05-21T22:38:28.513Z,58.50
2023-05-21T22:40:55.747Z,58.80
2023-05-21T22:43:22.626Z,59.20
2023-05-21T22:45:49.586Z,59.00
2023-05-21T22:48:18.258Z,58.90
2023-05-21T22:50:46.192Z,58.50
2023-05-21T22:53:13.382Z,58.80
2023-05-21T22:55:40.280Z,58.40
2023-05-21T22:58:07.073Z,58.90
2023-05-21T23:00:34.021Z,58.30
2023-05-21T23:03:00.929Z,57.80
2023-05-21T23:05:27.785Z,58.20
2023-05-21T23:07:54.632Z,58.00
2023-05-21T23:10:21.411Z,58.10
2023-05-21T23:12:48.227Z,58.10
2023-05-21T23:15:15.075Z,58.10
2023-05-21T23:17:41.861Z,58.00
2023-05-21T23:20:09.343Z,57.70
2023-05-21T23:22:36.848Z,58.00
2023-05-21T23:25:04.038Z,57.40
2023-05-21T23:27:30.919Z,58.00
2023-05-21T23:29:57.813Z,58.30
2023-05-21T23:32:24.870Z,58.60
2023-05-21T23:34:51.719Z,58.80
2023-05-21T23:37:19.414Z,58.60
2023-05-21T23:39:49.574Z,58.80
2023-05-21T23:42:17.443Z,60.30
2023-05-21T23:44:44.351Z,60.10
2023-05-21T23:47:11.398Z,60.40
2023-05-21T23:49:38.906Z,60.80
2023-05-21T23:52:06.252Z,60.80
2023-05-21T23:54:33.077Z,61.20
2023-05-21T23:56:59.834Z,61.10
2023-05-21T23:59:26.596Z,61.20
